sensor_id;sensor_type;location;lat;lon;timestamp;P1;durP1;ratioP1;P2;durP2;ratioP2
33413;SDS011;60055;41.884;12.534;2022-12-18T00:01:45;23.65;;;14.55;;
33413;SDS011;60055;41.884;12.534;2022-12-18T00:04:15;27.73;;;15.18;;
33413;SDS011;60055;41.884;12.534;2022-12-18T00:06:47;28.25;;;15.38;;
33413;SDS011;60055;41.884;12.534;2022-12-18T00:09:12;24.65;;;15.23;;
33413;SDS011;60055;41.884;12.534;2022-12-18T00:11:38;23.77;;;15.40;;
33413;SDS011;60055;41.884;12.534;2022-12-18T00:14:04;29.20;;;16.60;;
33413;SDS011;60055;41.884;12.534;2022-12-18T00:16:30;30.60;;;15.25;;
33413;SDS011;60055;41.884;12.534;2022-12-18T00:18:58;26.02;;;15.13;;
33413;SDS011;60055;41.884;12.534;2022-12-18T00:21:25;22.98;;;14.55;;
33413;SDS011;60055;41.884;12.534;2022-12-18T00:23:52;26.60;;;15.68;;
33413;SDS011;60055;41.884;12.534;2022-12-18T00:26:22;27.08;;;15.50;;
33413;SDS011;60055;41.884;12.534;2022-12-18T00:28:49;27.20;;;14.68;;
33413;SDS011;60055;41.884;12.534;2022-12-18T00:31:16;25.42;;;13.70;;
33413;SDS011;60055;41.884;12.534;2022-12-18T00:33:44;25.08;;;14.02;;
33413;SDS011;60055;41.884;12.534;2022-12-18T00:36:11;27.77;;;14.10;;
33413;SDS011;60055;41.884;12.534;2022-12-18T00:38:38;25.48;;;15.65;;
33413;SDS011;60055;41.884;12.534;2022-12-18T00:41:05;27.60;;;14.80;;
33413;SDS011;60055;41.884;12.534;2022-12-18T00:43:31;26.92;;;15.30;;
33413;SDS011;60055;41.884;12.534;2022-12-18T00:45:56;23.55;;;14.82;;
33413;SDS011;60055;41.884;12.534;2022-12-18T00:48:22;23.60;;;14.68;;
33413;SDS011;60055;41.884;12.534;2022-12-18T00:50:48;26.35;;;14.80;;
33413;SDS011;60055;41.884;12.534;2022-12-18T00:53:15;30.83;;;15.70;;
33413;SDS011;60055;41.884;12.534;2022-12-18T00:55:41;27.40;;;16.13;;
33413;SDS011;60055;41.884;12.534;2022-12-18T00:58:08;26.15;;;17.08;;
33413;SDS011;60055;41.884;12.534;2022-12-18T01:00:35;29.98;;;16.38;;
33413;SDS011;60055;41.884;12.534;2022-12-18T01:03:01;26.85;;;15.50;;
33413;SDS011;60055;41.884;12.534;2022-12-18T01:05:28;26.67;;;15.75;;
33413;SDS011;60055;41.884;12.534;2022-12-18T01:07:54;31.17;;;15.98;;
33413;SDS011;60055;41.884;12.534;2022-12-18T01:10:20;24.27;;;14.98;;
33413;SDS011;60055;41.884;12.534;2022-12-18T01:12:46;27.92;;;14.90;;
33413;SDS011;60055;41.884;12.534;2022-12-18T01:15:12;27.45;;;15.07;;
33413;SDS011;60055;41.884;12.534;2022-12-18T01:17:39;26.52;;;15.30;;
33413;SDS011;60055;41.884;12.534;2022-12-18T01:20:06;27.80;;;15.52;;
33413;SDS011;60055;41.884;12.534;2022-12-18T01:22:32;25.92;;;15.77;;
33413;SDS011;60055;41.884;12.534;2022-12-18T01:24:57;34.08;;;16.52;;
33413;SDS011;60055;41.884;12.534;2022-12-18T01:27:23;28.73;;;16.75;;
33413;SDS011;60055;41.884;12.534;2022-12-18T01:29:49;33.67;;;18.15;;
33413;SDS011;60055;41.884;12.534;2022-12-18T01:32:14;30.17;;;18.58;;
33413;SDS011;60055;41.884;12.534;2022-12-18T01:34:40;32.67;;;19.65;;
33413;SDS011;60055;41.884;12.534;2022-12-18T01:37:05;31.50;;;20.20;;
33413;SDS011;60055;41.884;12.534;2022-12-18T01:39:31;36.53;;;20.15;;
33413;SDS011;60055;41.884;12.534;2022-12-18T01:42:19;41.10;;;20.40;;
33413;SDS011;60055;41.884;12.534;2022-12-18T01:50:04;34.95;;;18.92;;
33413;SDS011;60055;41.884;12.534;2022-12-18T01:52:31;35.30;;;20.23;;
33413;SDS011;60055;41.884;12.534;2022-12-18T01:54:58;35.28;;;18.90;;
33413;SDS011;60055;41.884;12.534;2022-12-18T01:57:25;29.95;;;19.55;;
33413;SDS011;60055;41.884;12.534;2022-12-18T01:59:52;33.22;;;19.80;;
33413;SDS011;60055;41.884;12.534;2022-12-18T02:02:21;31.20;;;18.90;;
33413;SDS011;60055;41.884;12.534;2022-12-18T02:04:47;31.02;;;18.30;;
33413;SDS011;60055;41.884;12.534;2022-12-18T02:09:56;28.27;;;18.23;;
33413;SDS011;60055;41.884;12.534;2022-12-18T02:15:26;29.60;;;17.55;;
33413;SDS011;60055;41.884;12.534;2022-12-18T02:18:35;33.53;;;18.20;;
33413;SDS011;60055;41.884;12.534;2022-12-18T02:23:49;32.38;;;18.50;;
33413;SDS011;60055;41.884;12.534;2022-12-18T02:29:01;31.23;;;19.05;;
33413;SDS011;60055;41.884;12.534;2022-12-18T02:31:31;34.13;;;19.05;;
33413;SDS011;60055;41.884;12.534;2022-12-18T02:34:02;29.48;;;19.00;;
33413;SDS011;60055;41.884;12.534;2022-12-18T02:36:30;33.63;;;19.17;;
33413;SDS011;60055;41.884;12.534;2022-12-18T02:38:58;33.67;;;20.55;;
33413;SDS011;60055;41.884;12.534;2022-12-18T02:41:26;35.13;;;19.30;;
33413;SDS011;60055;41.884;12.534;2022-12-18T02:43:56;30.90;;;18.52;;
33413;SDS011;60055;41.884;12.534;2022-12-18T02:46:25;29.02;;;19.05;;
33413;SDS011;60055;41.884;12.534;2022-12-18T02:49:01;34.97;;;19.92;;
33413;SDS011;60055;41.884;12.534;2022-12-18T02:57:32;32.90;;;19.02;;
33413;SDS011;60055;41.884;12.534;2022-12-18T03:00:13;31.77;;;19.85;;
33413;SDS011;60055;41.884;12.534;2022-12-18T03:05:22;31.45;;;18.73;;
33413;SDS011;60055;41.884;12.534;2022-12-18T03:08:00;27.10;;;17.88;;
33413;SDS011;60055;41.884;12.534;2022-12-18T03:10:28;32.83;;;18.17;;
33413;SDS011;60055;41.884;12.534;2022-12-18T03:12:59;29.25;;;18.48;;
33413;SDS011;60055;41.884;12.534;2022-12-18T03:15:47;30.55;;;17.92;;
33413;SDS011;60055;41.884;12.534;2022-12-18T03:18:20;29.63;;;18.98;;
33413;SDS011;60055;41.884;12.534;2022-12-18T03:20:56;28.42;;;18.17;;
33413;SDS011;60055;41.884;12.534;2022-12-18T03:23:25;27.55;;;17.92;;
33413;SDS011;60055;41.884;12.534;2022-12-18T03:25:54;29.40;;;18.55;;
33413;SDS011;60055;41.884;12.534;2022-12-18T03:28:23;28.58;;;18.08;;
33413;SDS011;60055;41.884;12.534;2022-12-18T03:30:53;27.95;;;17.60;;
33413;SDS011;60055;41.884;12.534;2022-12-18T03:33:24;28.75;;;17.08;;
33413;SDS011;60055;41.884;12.534;2022-12-18T03:35:54;24.10;;;16.52;;
33413;SDS011;60055;41.884;12.534;2022-12-18T03:38:20;27.88;;;17.77;;
33413;SDS011;60055;41.884;12.534;2022-12-18T03:43:26;26.98;;;17.00;;
33413;SDS011;60055;41.884;12.534;2022-12-18T03:46:02;26.08;;;17.63;;
33413;SDS011;60055;41.884;12.534;2022-12-18T03:48:38;27.15;;;17.10;;
33413;SDS011;60055;41.884;12.534;2022-12-18T03:51:23;28.45;;;17.60;;
33413;SDS011;60055;41.884;12.534;2022-12-18T03:53:58;31.52;;;17.65;;
33413;SDS011;60055;41.884;12.534;2022-12-18T03:56:28;32.25;;;18.35;;
33413;SDS011;60055;41.884;12.534;2022-12-18T03:58:57;29.80;;;18.23;;
33413;SDS011;60055;41.884;12.534;2022-12-18T04:01:25;30.05;;;17.73;;
33413;SDS011;60055;41.884;12.534;2022-12-18T04:03:57;27.48;;;17.58;;
33413;SDS011;60055;41.884;12.534;2022-12-18T04:06:26;25.38;;;17.92;;
33413;SDS011;60055;41.884;12.534;2022-12-18T04:08:52;28.05;;;17.23;;
33413;SDS011;60055;41.884;12.534;2022-12-18T04:11:18;27.40;;;17.27;;
33413;SDS011;60055;41.884;12.534;2022-12-18T04:13:44;29.63;;;17.42;;
33413;SDS011;60055;41.884;12.534;2022-12-18T04:16:10;28.35;;;16.85;;
33413;SDS011;60055;41.884;12.534;2022-12-18T04:18:35;29.40;;;17.88;;
33413;SDS011;60055;41.884;12.534;2022-12-18T04:21:01;25.95;;;16.40;;
33413;SDS011;60055;41.884;12.534;2022-12-18T04:23:27;26.05;;;16.00;;
33413;SDS011;60055;41.884;12.534;2022-12-18T04:25:53;24.08;;;16.77;;
33413;SDS011;60055;41.884;12.534;2022-12-18T04:28:19;27.70;;;16.25;;
33413;SDS011;60055;41.884;12.534;2022-12-18T04:30:45;26.90;;;15.98;;
33413;SDS011;60055;41.884;12.534;2022-12-18T04:33:11;26.20;;;15.93;;
33413;SDS011;60055;41.884;12.534;2022-12-18T04:35:38;24.15;;;15.50;;
33413;SDS011;60055;41.884;12.534;2022-12-18T04:38:05;27.92;;;16.48;;
33413;SDS011;60055;41.884;12.534;2022-12-18T04:40:33;22.33;;;15.25;;
33413;SDS011;60055;41.884;12.534;2022-12-18T04:42:59;25.33;;;15.88;;
33413;SDS011;60055;41.884;12.534;2022-12-18T04:45:24;24.63;;;15.70;;
33413;SDS011;60055;41.884;12.534;2022-12-18T04:47:50;22.00;;;15.00;;
33413;SDS011;60055;41.884;12.534;2022-12-18T04:50:16;28.23;;;15.65;;
33413;SDS011;60055;41.884;12.534;2022-12-18T04:52:42;25.83;;;15.27;;
33413;SDS011;60055;41.884;12.534;2022-12-18T04:55:07;22.60;;;14.55;;
33413;SDS011;60055;41.884;12.534;2022-12-18T04:57:33;25.17;;;15.35;;
33413;SDS011;60055;41.884;12.534;2022-12-18T04:59:59;22.23;;;14.77;;
33413;SDS011;60055;41.884;12.534;2022-12-18T05:02:27;24.17;;;14.23;;
33413;SDS011;60055;41.884;12.534;2022-12-18T05:04:53;28.80;;;14.50;;
33413;SDS011;60055;41.884;12.534;2022-12-18T05:07:18;21.48;;;14.50;;
33413;SDS011;60055;41.884;12.534;2022-12-18T05:09:44;22.58;;;14.52;;
33413;SDS011;60055;41.884;12.534;2022-12-18T05:12:10;27.73;;;14.02;;
33413;SDS011;60055;41.884;12.534;2022-12-18T05:14:36;22.45;;;14.45;;
33413;SDS011;60055;41.884;12.534;2022-12-18T05:17:01;21.67;;;14.23;;
33413;SDS011;60055;41.884;12.534;2022-12-18T05:19:27;23.00;;;14.15;;
33413;SDS011;60055;41.884;12.534;2022-12-18T05:21:53;26.88;;;13.60;;
33413;SDS011;60055;41.884;12.534;2022-12-18T05:24:18;18.92;;;12.98;;
33413;SDS011;60055;41.884;12.534;2022-12-18T05:26:44;23.67;;;12.70;;
33413;SDS011;60055;41.884;12.534;2022-12-18T05:29:09;24.30;;;12.93;;
33413;SDS011;60055;41.884;12.534;2022-12-18T05:31:37;19.98;;;12.38;;
33413;SDS011;60055;41.884;12.534;2022-12-18T05:34:03;22.30;;;12.75;;
33413;SDS011;60055;41.884;12.534;2022-12-18T05:36:29;22.95;;;12.27;;
33413;SDS011;60055;41.884;12.534;2022-12-18T05:38:54;24.67;;;12.55;;
33413;SDS011;60055;41.884;12.534;2022-12-18T05:41:20;20.45;;;12.02;;
33413;SDS011;60055;41.884;12.534;2022-12-18T05:43:46;20.92;;;12.55;;
33413;SDS011;60055;41.884;12.534;2022-12-18T05:46:12;18.75;;;11.45;;
33413;SDS011;60055;41.884;12.534;2022-12-18T05:48:40;17.95;;;11.60;;
33413;SDS011;60055;41.884;12.534;2022-12-18T05:51:08;16.42;;;11.18;;
33413;SDS011;60055;41.884;12.534;2022-12-18T05:53:35;19.33;;;10.38;;
33413;SDS011;60055;41.884;12.534;2022-12-18T05:56:03;16.77;;;10.75;;
33413;SDS011;60055;41.884;12.534;2022-12-18T05:58:30;16.33;;;9.85;;
33413;SDS011;60055;41.884;12.534;2022-12-18T06:00:56;15.50;;;9.90;;
33413;SDS011;60055;41.884;12.534;2022-12-18T06:03:23;15.77;;;9.30;;
33413;SDS011;60055;41.884;12.534;2022-12-18T06:05:49;16.90;;;9.55;;
33413;SDS011;60055;41.884;12.534;2022-12-18T06:08:15;17.90;;;9.85;;
33413;SDS011;60055;41.884;12.534;2022-12-18T06:10:40;17.73;;;9.75;;
33413;SDS011;60055;41.884;12.534;2022-12-18T06:13:06;17.05;;;9.57;;
33413;SDS011;60055;41.884;12.534;2022-12-18T06:15:32;15.30;;;9.20;;
33413;SDS011;60055;41.884;12.534;2022-12-18T06:18:01;17.23;;;10.18;;
33413;SDS011;60055;41.884;12.534;2022-12-18T06:20:26;16.17;;;9.65;;
33413;SDS011;60055;41.884;12.534;2022-12-18T06:22:55;13.80;;;8.52;;
33413;SDS011;60055;41.884;12.534;2022-12-18T06:25:21;18.05;;;9.13;;
33413;SDS011;60055;41.884;12.534;2022-12-18T06:27:47;13.10;;;8.27;;
33413;SDS011;60055;41.884;12.534;2022-12-18T06:30:13;12.60;;;7.85;;
33413;SDS011;60055;41.884;12.534;2022-12-18T06:32:38;13.65;;;8.45;;
33413;SDS011;60055;41.884;12.534;2022-12-18T06:35:04;12.50;;;8.40;;
33413;SDS011;60055;41.884;12.534;2022-12-18T06:37:30;15.55;;;8.60;;
33413;SDS011;60055;41.884;12.534;2022-12-18T06:39:56;13.85;;;8.05;;
33413;SDS011;60055;41.884;12.534;2022-12-18T06:42:22;13.75;;;8.40;;
33413;SDS011;60055;41.884;12.534;2022-12-18T06:44:48;12.77;;;7.97;;
33413;SDS011;60055;41.884;12.534;2022-12-18T06:47:14;14.48;;;7.80;;
33413;SDS011;60055;41.884;12.534;2022-12-18T06:49:39;11.23;;;7.07;;
33413;SDS011;60055;41.884;12.534;2022-12-18T06:52:05;11.48;;;6.75;;
33413;SDS011;60055;41.884;12.534;2022-12-18T06:54:31;10.50;;;7.03;;
33413;SDS011;60055;41.884;12.534;2022-12-18T06:56:56;10.52;;;6.90;;
33413;SDS011;60055;41.884;12.534;2022-12-18T06:59:22;13.10;;;6.90;;
33413;SDS011;60055;41.884;12.534;2022-12-18T07:01:47;13.57;;;7.63;;
33413;SDS011;60055;41.884;12.534;2022-12-18T07:04:13;14.77;;;8.50;;
33413;SDS011;60055;41.884;12.534;2022-12-18T07:06:38;11.20;;;7.03;;
33413;SDS011;60055;41.884;12.534;2022-12-18T07:09:04;12.48;;;6.63;;
33413;SDS011;60055;41.884;12.534;2022-12-18T07:11:32;13.13;;;6.72;;
33413;SDS011;60055;41.884;12.534;2022-12-18T07:13:58;10.73;;;6.60;;
33413;SDS011;60055;41.884;12.534;2022-12-18T07:16:24;13.00;;;6.55;;
33413;SDS011;60055;41.884;12.534;2022-12-18T07:18:50;26.95;;;6.35;;
33413;SDS011;60055;41.884;12.534;2022-12-18T07:21:17;11.13;;;6.90;;
33413;SDS011;60055;41.884;12.534;2022-12-18T07:23:44;10.75;;;6.15;;
33413;SDS011;60055;41.884;12.534;2022-12-18T07:26:12;11.25;;;6.80;;
33413;SDS011;60055;41.884;12.534;2022-12-18T07:28:40;13.05;;;6.97;;
33413;SDS011;60055;41.884;12.534;2022-12-18T07:31:08;21.85;;;8.73;;
33413;SDS011;60055;41.884;12.534;2022-12-18T07:33:36;15.95;;;7.90;;
33413;SDS011;60055;41.884;12.534;2022-12-18T07:36:03;14.30;;;7.78;;
33413;SDS011;60055;41.884;12.534;2022-12-18T07:38:30;14.88;;;7.68;;
33413;SDS011;60055;41.884;12.534;2022-12-18T07:41:00;14.05;;;7.78;;
33413;SDS011;60055;41.884;12.534;2022-12-18T07:43:27;11.93;;;7.50;;
33413;SDS011;60055;41.884;12.534;2022-12-18T07:45:52;18.67;;;9.27;;
33413;SDS011;60055;41.884;12.534;2022-12-18T07:48:18;14.82;;;8.05;;
33413;SDS011;60055;41.884;12.534;2022-12-18T07:50:43;13.95;;;7.95;;
33413;SDS011;60055;41.884;12.534;2022-12-18T07:53:09;14.52;;;7.93;;
33413;SDS011;60055;41.884;12.534;2022-12-18T07:55:35;14.68;;;8.23;;
33413;SDS011;60055;41.884;12.534;2022-12-18T07:58:01;14.35;;;8.02;;
33413;SDS011;60055;41.884;12.534;2022-12-18T08:00:28;15.93;;;8.15;;
33413;SDS011;60055;41.884;12.534;2022-12-18T08:02:54;14.05;;;8.07;;
33413;SDS011;60055;41.884;12.534;2022-12-18T08:05:19;19.25;;;8.30;;
33413;SDS011;60055;41.884;12.534;2022-12-18T08:07:45;12.25;;;7.85;;
33413;SDS011;60055;41.884;12.534;2022-12-18T08:10:11;15.30;;;7.90;;
33413;SDS011;60055;41.884;12.534;2022-12-18T08:12:37;14.38;;;7.28;;
33413;SDS011;60055;41.884;12.534;2022-12-18T08:15:03;13.90;;;7.30;;
33413;SDS011;60055;41.884;12.534;2022-12-18T08:17:29;14.43;;;7.38;;
33413;SDS011;60055;41.884;12.534;2022-12-18T08:19:55;14.52;;;7.43;;
33413;SDS011;60055;41.884;12.534;2022-12-18T08:22:21;13.57;;;7.55;;
33413;SDS011;60055;41.884;12.534;2022-12-18T08:24:46;16.02;;;7.80;;
33413;SDS011;60055;41.884;12.534;2022-12-18T08:27:12;15.18;;;7.18;;
33413;SDS011;60055;41.884;12.534;2022-12-18T08:29:37;12.40;;;8.02;;
33413;SDS011;60055;41.884;12.534;2022-12-18T08:32:03;14.32;;;7.05;;
33413;SDS011;60055;41.884;12.534;2022-12-18T08:34:29;15.02;;;7.47;;
33413;SDS011;60055;41.884;12.534;2022-12-18T08:36:55;10.65;;;7.30;;
33413;SDS011;60055;41.884;12.534;2022-12-18T08:39:21;16.20;;;7.43;;
33413;SDS011;60055;41.884;12.534;2022-12-18T08:41:46;14.20;;;7.05;;
33413;SDS011;60055;41.884;12.534;2022-12-18T08:44:32;14.18;;;6.50;;
33413;SDS011;60055;41.884;12.534;2022-12-18T08:47:04;12.88;;;6.22;;
33413;SDS011;60055;41.884;12.534;2022-12-18T08:49:31;12.65;;;6.72;;
33413;SDS011;60055;41.884;12.534;2022-12-18T08:51:57;15.68;;;6.65;;
33413;SDS011;60055;41.884;12.534;2022-12-18T08:54:23;13.60;;;7.07;;
33413;SDS011;60055;41.884;12.534;2022-12-18T08:56:49;14.18;;;6.57;;
33413;SDS011;60055;41.884;12.534;2022-12-18T08:59:15;10.50;;;6.38;;
33413;SDS011;60055;41.884;12.534;2022-12-18T09:01:41;14.95;;;6.88;;
33413;SDS011;60055;41.884;12.534;2022-12-18T09:04:07;13.25;;;6.38;;
33413;SDS011;60055;41.884;12.534;2022-12-18T09:06:36;13.05;;;6.50;;
33413;SDS011;60055;41.884;12.534;2022-12-18T09:09:03;16.50;;;6.65;;
33413;SDS011;60055;41.884;12.534;2022-12-18T09:11:31;11.68;;;6.45;;
33413;SDS011;60055;41.884;12.534;2022-12-18T09:13:57;11.15;;;6.15;;
33413;SDS011;60055;41.884;12.534;2022-12-18T09:16:25;13.60;;;6.32;;
33413;SDS011;60055;41.884;12.534;2022-12-18T09:18:53;21.08;;;12.07;;
33413;SDS011;60055;41.884;12.534;2022-12-18T09:21:25;13.63;;;6.78;;
33413;SDS011;60055;41.884;12.534;2022-12-18T09:23:53;9.68;;;6.60;;
33413;SDS011;60055;41.884;12.534;2022-12-18T09:26:20;12.38;;;5.75;;
33413;SDS011;60055;41.884;12.534;2022-12-18T09:28:46;11.32;;;5.38;;
33413;SDS011;60055;41.884;12.534;2022-12-18T09:31:13;7.35;;;5.22;;
33413;SDS011;60055;41.884;12.534;2022-12-18T09:33:39;11.27;;;4.95;;
33413;SDS011;60055;41.884;12.534;2022-12-18T09:36:06;9.45;;;4.80;;
33413;SDS011;60055;41.884;12.534;2022-12-18T09:38:34;9.88;;;4.57;;
33413;SDS011;60055;41.884;12.534;2022-12-18T09:41:05;9.30;;;4.40;;
33413;SDS011;60055;41.884;12.534;2022-12-18T09:43:45;8.73;;;4.30;;
33413;SDS011;60055;41.884;12.534;2022-12-18T09:46:37;9.88;;;4.55;;
33413;SDS011;60055;41.884;12.534;2022-12-18T09:49:11;9.32;;;4.38;;
33413;SDS011;60055;41.884;12.534;2022-12-18T09:51:41;7.75;;;4.18;;
33413;SDS011;60055;41.884;12.534;2022-12-18T09:54:18;8.57;;;4.65;;
33413;SDS011;60055;41.884;12.534;2022-12-18T09:56:54;11.32;;;4.68;;
33413;SDS011;60055;41.884;12.534;2022-12-18T09:59:30;9.90;;;4.32;;
33413;SDS011;60055;41.884;12.534;2022-12-18T10:02:15;8.48;;;3.85;;
33413;SDS011;60055;41.884;12.534;2022-12-18T10:04:52;9.48;;;3.65;;
33413;SDS011;60055;41.884;12.534;2022-12-18T10:07:38;11.95;;;4.63;;
33413;SDS011;60055;41.884;12.534;2022-12-18T10:10:27;10.23;;;4.78;;
33413;SDS011;60055;41.884;12.534;2022-12-18T10:24:44;10.55;;;4.35;;
33413;SDS011;60055;41.884;12.534;2022-12-18T10:27:21;12.32;;;4.22;;
33413;SDS011;60055;41.884;12.534;2022-12-18T10:29:49;13.40;;;4.45;;
33413;SDS011;60055;41.884;12.534;2022-12-18T10:32:16;11.85;;;3.80;;
33413;SDS011;60055;41.884;12.534;2022-12-18T10:34:48;8.07;;;3.40;;
33413;SDS011;60055;41.884;12.534;2022-12-18T10:37:19;8.20;;;3.50;;
33413;SDS011;60055;41.884;12.534;2022-12-18T10:39:47;9.63;;;3.50;;
33413;SDS011;60055;41.884;12.534;2022-12-18T10:42:35;7.15;;;3.35;;
33413;SDS011;60055;41.884;12.534;2022-12-18T10:45:09;9.18;;;3.33;;
33413;SDS011;60055;41.884;12.534;2022-12-18T10:47:35;9.23;;;3.60;;
33413;SDS011;60055;41.884;12.534;2022-12-18T10:50:01;6.90;;;3.20;;
33413;SDS011;60055;41.884;12.534;2022-12-18T10:52:28;8.48;;;5.28;;
33413;SDS011;60055;41.884;12.534;2022-12-18T10:57:39;11.75;;;3.60;;
33413;SDS011;60055;41.884;12.534;2022-12-18T11:00:28;10.63;;;3.47;;
33413;SDS011;60055;41.884;12.534;2022-12-18T11:02:54;11.15;;;3.67;;
33413;SDS011;60055;41.884;12.534;2022-12-18T11:07:57;8.10;;;3.50;;
33413;SDS011;60055;41.884;12.534;2022-12-18T11:10:31;13.52;;;3.25;;
33413;SDS011;60055;41.884;12.534;2022-12-18T11:13:18;12.25;;;3.15;;
33413;SDS011;60055;41.884;12.534;2022-12-18T11:15:45;13.27;;;3.15;;
33413;SDS011;60055;41.884;12.534;2022-12-18T11:18:16;26.40;;;5.70;;
33413;SDS011;60055;41.884;12.534;2022-12-18T11:20:49;31.05;;;4.20;;
33413;SDS011;60055;41.884;12.534;2022-12-18T11:23:17;8.50;;;2.97;;
33413;SDS011;60055;41.884;12.534;2022-12-18T11:25:52;17.33;;;3.65;;
33413;SDS011;60055;41.884;12.534;2022-12-18T11:28:27;11.20;;;3.40;;
33413;SDS011;60055;41.884;12.534;2022-12-18T11:31:17;8.85;;;3.58;;
33413;SDS011;60055;41.884;12.534;2022-12-18T11:33:52;9.00;;;2.97;;
33413;SDS011;60055;41.884;12.534;2022-12-18T11:36:42;7.60;;;3.00;;
33413;SDS011;60055;41.884;12.534;2022-12-18T11:39:17;8.63;;;3.35;;
33413;SDS011;60055;41.884;12.534;2022-12-18T11:41:53;6.65;;;3.05;;
33413;SDS011;60055;41.884;12.534;2022-12-18T11:45:20;24.50;;;12.43;;
33413;SDS011;60055;41.884;12.534;2022-12-18T11:47:39;7.20;;;4.15;;
33413;SDS011;60055;41.884;12.534;2022-12-18T11:53:13;9.27;;;3.67;;
33413;SDS011;60055;41.884;12.534;2022-12-18T11:55:41;11.80;;;3.55;;
33413;SDS011;60055;41.884;12.534;2022-12-18T12:01:07;8.98;;;3.90;;
33413;SDS011;60055;41.884;12.534;2022-12-18T12:06:28;9.40;;;4.38;;
33413;SDS011;60055;41.884;12.534;2022-12-18T12:11:59;8.02;;;4.28;;
33413;SDS011;60055;41.884;12.534;2022-12-18T12:25:30;5.57;;;2.70;;
33413;SDS011;60055;41.884;12.534;2022-12-18T12:39:10;4.55;;;2.22;;
33413;SDS011;60055;41.884;12.534;2022-12-18T12:41:39;6.13;;;2.30;;
33413;SDS011;60055;41.884;12.534;2022-12-18T12:44:50;8.63;;;3.10;;
33413;SDS011;60055;41.884;12.534;2022-12-18T12:47:21;4.03;;;2.40;;
33413;SDS011;60055;41.884;12.534;2022-12-18T12:49:54;10.40;;;2.20;;
33413;SDS011;60055;41.884;12.534;2022-12-18T12:52:30;6.72;;;2.10;;
33413;SDS011;60055;41.884;12.534;2022-12-18T12:55:07;5.82;;;2.08;;
33413;SDS011;60055;41.884;12.534;2022-12-18T12:58:02;5.40;;;1.90;;
33413;SDS011;60055;41.884;12.534;2022-12-18T13:00:44;7.68;;;2.10;;
33413;SDS011;60055;41.884;12.534;2022-12-18T13:09:30;6.88;;;3.08;;
33413;SDS011;60055;41.884;12.534;2022-12-18T13:12:01;6.97;;;2.47;;
33413;SDS011;60055;41.884;12.534;2022-12-18T13:14:54;10.52;;;2.25;;
33413;SDS011;60055;41.884;12.534;2022-12-18T13:17:45;3.92;;;2.10;;
33413;SDS011;60055;41.884;12.534;2022-12-18T13:20:12;8.25;;;3.22;;
33413;SDS011;60055;41.884;12.534;2022-12-18T13:33:43;7.70;;;3.47;;
33413;SDS011;60055;41.884;12.534;2022-12-18T13:38:32;27.30;;;15.98;;
33413;SDS011;60055;41.884;12.534;2022-12-18T13:43:45;9.50;;;5.50;;
33413;SDS011;60055;41.884;12.534;2022-12-18T13:51:25;8.43;;;3.15;;
33413;SDS011;60055;41.884;12.534;2022-12-18T13:53:55;12.98;;;3.60;;
33413;SDS011;60055;41.884;12.534;2022-12-18T13:56:25;13.48;;;5.28;;
33413;SDS011;60055;41.884;12.534;2022-12-18T13:59:04;14.55;;;5.65;;
33413;SDS011;60055;41.884;12.534;2022-12-18T14:01:36;9.38;;;3.13;;
33413;SDS011;60055;41.884;12.534;2022-12-18T14:07:03;6.72;;;2.25;;
33413;SDS011;60055;41.884;12.534;2022-12-18T14:09:35;6.57;;;2.47;;
33413;SDS011;60055;41.884;12.534;2022-12-18T14:12:04;8.35;;;2.95;;
33413;SDS011;60055;41.884;12.534;2022-12-18T14:14:49;6.47;;;2.70;;
33413;SDS011;60055;41.884;12.534;2022-12-18T14:17:17;14.63;;;5.40;;
33413;SDS011;60055;41.884;12.534;2022-12-18T14:19:44;7.40;;;3.03;;
33413;SDS011;60055;41.884;12.534;2022-12-18T14:22:15;7.38;;;3.08;;
33413;SDS011;60055;41.884;12.534;2022-12-18T14:24:46;8.73;;;3.60;;
33413;SDS011;60055;41.884;12.534;2022-12-18T14:27:23;6.63;;;3.20;;
33413;SDS011;60055;41.884;12.534;2022-12-18T14:29:50;8.00;;;3.42;;
33413;SDS011;60055;41.884;12.534;2022-12-18T14:32:17;9.10;;;3.22;;
33413;SDS011;60055;41.884;12.534;2022-12-18T14:34:49;7.32;;;3.10;;
33413;SDS011;60055;41.884;12.534;2022-12-18T14:37:17;16.42;;;8.90;;
33413;SDS011;60055;41.884;12.534;2022-12-18T14:39:58;12.52;;;6.32;;
33413;SDS011;60055;41.884;12.534;2022-12-18T14:42:26;11.20;;;5.80;;
33413;SDS011;60055;41.884;12.534;2022-12-18T14:48:00;10.13;;;4.55;;
33413;SDS011;60055;41.884;12.534;2022-12-18T14:50:32;14.68;;;6.15;;
33413;SDS011;60055;41.884;12.534;2022-12-18T14:52:58;10.32;;;5.50;;
33413;SDS011;60055;41.884;12.534;2022-12-18T14:55:24;11.05;;;5.40;;
33413;SDS011;60055;41.884;12.534;2022-12-18T14:57:53;10.35;;;4.95;;
33413;SDS011;60055;41.884;12.534;2022-12-18T15:00:21;12.13;;;4.47;;
33413;SDS011;60055;41.884;12.534;2022-12-18T15:02:54;6.88;;;3.35;;
33413;SDS011;60055;41.884;12.534;2022-12-18T15:05:28;8.45;;;4.60;;
33413;SDS011;60055;41.884;12.534;2022-12-18T15:07:56;6.60;;;3.72;;
33413;SDS011;60055;41.884;12.534;2022-12-18T15:10:27;10.95;;;3.60;;
33413;SDS011;60055;41.884;12.534;2022-12-18T15:20:55;11.55;;;5.07;;
33413;SDS011;60055;41.884;12.534;2022-12-18T15:23:34;8.55;;;3.38;;
33413;SDS011;60055;41.884;12.534;2022-12-18T15:26:14;14.63;;;3.63;;
33413;SDS011;60055;41.884;12.534;2022-12-18T15:33:41;11.35;;;3.90;;
33413;SDS011;60055;41.884;12.534;2022-12-18T15:36:24;17.05;;;5.13;;
33413;SDS011;60055;41.884;12.534;2022-12-18T15:38:50;15.88;;;4.30;;
33413;SDS011;60055;41.884;12.534;2022-12-18T15:41:19;15.32;;;5.55;;
33413;SDS011;60055;41.884;12.534;2022-12-18T15:43:46;12.50;;;5.60;;
33413;SDS011;60055;41.884;12.534;2022-12-18T15:46:15;12.52;;;5.75;;
33413;SDS011;60055;41.884;12.534;2022-12-18T15:48:46;10.88;;;5.30;;
33413;SDS011;60055;41.884;12.534;2022-12-18T15:51:19;13.30;;;5.35;;
33413;SDS011;60055;41.884;12.534;2022-12-18T15:53:53;14.15;;;5.40;;
33413;SDS011;60055;41.884;12.534;2022-12-18T15:56:20;11.77;;;5.22;;
33413;SDS011;60055;41.884;12.534;2022-12-18T15:59:12;15.90;;;6.55;;
33413;SDS011;60055;41.884;12.534;2022-12-18T16:04:08;21.98;;;7.35;;
33413;SDS011;60055;41.884;12.534;2022-12-18T16:06:38;20.45;;;7.03;;
33413;SDS011;60055;41.884;12.534;2022-12-18T16:09:04;18.67;;;6.85;;
33413;SDS011;60055;41.884;12.534;2022-12-18T16:11:30;25.15;;;10.75;;
33413;SDS011;60055;41.884;12.534;2022-12-18T16:16:37;73.65;;;38.22;;
33413;SDS011;60055;41.884;12.534;2022-12-18T16:19:03;34.28;;;14.18;;
33413;SDS011;60055;41.884;12.534;2022-12-18T16:21:28;26.80;;;10.20;;
33413;SDS011;60055;41.884;12.534;2022-12-18T16:23:54;27.20;;;7.72;;
33413;SDS011;60055;41.884;12.534;2022-12-18T16:26:20;17.58;;;6.60;;
33413;SDS011;60055;41.884;12.534;2022-12-18T16:28:45;18.25;;;7.13;;
33413;SDS011;60055;41.884;12.534;2022-12-18T16:31:11;18.30;;;7.45;;
33413;SDS011;60055;41.884;12.534;2022-12-18T16:33:36;20.17;;;7.82;;
33413;SDS011;60055;41.884;12.534;2022-12-18T16:36:02;24.35;;;7.57;;
33413;SDS011;60055;41.884;12.534;2022-12-18T16:38:28;21.52;;;7.95;;
33413;SDS011;60055;41.884;12.534;2022-12-18T16:40:53;23.73;;;7.50;;
33413;SDS011;60055;41.884;12.534;2022-12-18T16:46:03;18.80;;;8.02;;